This is the latest recevied weather packets stored in our database for station/object ED3YAB-7. If no packets are shown the sender has not sent any weather packets the latest 10 day(s).
| Time | Temp. | Humidity | Pressure | Rain* | Wind** | Luminosity | Snow |
|---|---|---|---|---|---|---|---|
| 1777676675 | 15.56° C | 62% | 1029 hPa | - | - | - | - |
| 1777675474 | 15.56° C | 62% | 1028.9 hPa | - | - | - | - |
| 1777674274 | 15.56° C | 63% | 1028.8 hPa | - | - | - | - |
| 1777673074 | 15.56° C | 62% | 1028.8 hPa | - | - | - | - |
| 1777671874 | 15.56° C | 62% | 1028.8 hPa | - | - | - | - |
| 1777670681 | 15.56° C | 62% | 1028.8 hPa | - | - | - | - |
| 1777670674 | 15.56° C | 62% | 1028.8 hPa | - | - | - | - |
| 1777669474 | 16.11° C | 61% | 1028.9 hPa | - | - | - | - |
| 1777668274 | 16.11° C | 60% | 1029 hPa | - | - | - | - |
| 1777667081 | 16.11° C | 60% | 1028.8 hPa | - | - | - | - |
| 1777665608 | 16.11° C | 59% | 1028.8 hPa | - | - | - | - |
| 1777665600 | 16.11° C | 59% | 1028.8 hPa | - | - | - | - |
| 1777664400 | 16.11° C | 58% | 1028.4 hPa | - | - | - | - |
| 1777663200 | 16.11° C | 57% | 1028.2 hPa | - | - | - | - |
| 1777662000 | 16.67° C | 56% | 1028.1 hPa | - | - | - | - |
| 1777660800 | 16.67° C | 55% | 1027.9 hPa | - | - | - | - |
| 1777659600 | 17.22° C | 53% | 1027.5 hPa | - | - | - | - |
| 1777658401 | 17.78° C | 50% | 1027 hPa | - | - | - | - |
| 1777657201 | 19.44° C | 44% | 1027 hPa | - | - | - | - |
| 1777656001 | 22.78° C | 36% | 1026.8 hPa | - | - | - | - |
| 1777654801 | 26.11° C | 30% | 1026.7 hPa | - | - | - | - |
| 1777653601 | 23.89° C | 32% | 1026.7 hPa | - | - | - | - |
| 1777652401 | 26.67° C | 28% | 1026.4 hPa | - | - | - | - |
| 1777651200 | 24.44° C | 32% | 1026.4 hPa | - | - | - | - |
| 1777650000 | 28.33° C | 25% | 1026.4 hPa | - | - | - | - |
* Rain since midnight (hover to see other rain measurements)
** Current wind speed in m/s (hover to see current wind gust speed)